sensor_id;sensor_type;location;lat;lon;timestamp;P1;durP1;ratioP1;P2;durP2;ratioP2
16248;SDS011;8232;51.678;6.610;2022-07-11T00:01:32;8.57;;;2.80;;
16248;SDS011;8232;51.678;6.610;2022-07-11T00:03:59;5.85;;;2.55;;
16248;SDS011;8232;51.678;6.610;2022-07-11T00:06:27;5.00;;;2.40;;
16248;SDS011;8232;51.678;6.610;2022-07-11T00:08:54;3.92;;;2.03;;
16248;SDS011;8232;51.678;6.610;2022-07-11T00:11:21;5.13;;;2.63;;
16248;SDS011;8232;51.678;6.610;2022-07-11T00:13:48;4.57;;;2.25;;
16248;SDS011;8232;51.678;6.610;2022-07-11T00:16:15;5.00;;;2.30;;
16248;SDS011;8232;51.678;6.610;2022-07-11T00:18:42;5.88;;;2.28;;
16248;SDS011;8232;51.678;6.610;2022-07-11T00:21:10;5.35;;;2.40;;
16248;SDS011;8232;51.678;6.610;2022-07-11T00:23:38;2.97;;;2.17;;
16248;SDS011;8232;51.678;6.610;2022-07-11T00:26:05;6.32;;;2.58;;
16248;SDS011;8232;51.678;6.610;2022-07-11T00:28:32;7.43;;;2.55;;
16248;SDS011;8232;51.678;6.610;2022-07-11T00:30:59;6.28;;;2.38;;
16248;SDS011;8232;51.678;6.610;2022-07-11T00:33:25;7.05;;;2.63;;
16248;SDS011;8232;51.678;6.610;2022-07-11T00:35:52;11.10;;;2.78;;
16248;SDS011;8232;51.678;6.610;2022-07-11T00:38:19;4.63;;;2.45;;
16248;SDS011;8232;51.678;6.610;2022-07-11T00:40:47;5.28;;;2.58;;
16248;SDS011;8232;51.678;6.610;2022-07-11T00:43:14;5.22;;;2.10;;
16248;SDS011;8232;51.678;6.610;2022-07-11T00:45:44;5.80;;;2.40;;
16248;SDS011;8232;51.678;6.610;2022-07-11T00:48:13;4.75;;;2.33;;
16248;SDS011;8232;51.678;6.610;2022-07-11T00:50:40;10.02;;;2.22;;
16248;SDS011;8232;51.678;6.610;2022-07-11T00:53:07;8.30;;;2.55;;
16248;SDS011;8232;51.678;6.610;2022-07-11T00:55:34;20.83;;;3.45;;
16248;SDS011;8232;51.678;6.610;2022-07-11T00:58:02;6.57;;;2.13;;
16248;SDS011;8232;51.678;6.610;2022-07-11T01:00:29;4.35;;;2.42;;
16248;SDS011;8232;51.678;6.610;2022-07-11T01:02:56;6.07;;;2.60;;
16248;SDS011;8232;51.678;6.610;2022-07-11T01:05:24;5.90;;;2.35;;
16248;SDS011;8232;51.678;6.610;2022-07-11T01:07:50;7.75;;;2.78;;
16248;SDS011;8232;51.678;6.610;2022-07-11T01:10:17;5.82;;;2.67;;
16248;SDS011;8232;51.678;6.610;2022-07-11T01:12:44;6.47;;;2.28;;
16248;SDS011;8232;51.678;6.610;2022-07-11T01:15:13;5.35;;;2.42;;
16248;SDS011;8232;51.678;6.610;2022-07-11T01:17:41;8.32;;;2.72;;
16248;SDS011;8232;51.678;6.610;2022-07-11T01:20:08;7.15;;;2.35;;
16248;SDS011;8232;51.678;6.610;2022-07-11T01:22:39;5.15;;;2.30;;
16248;SDS011;8232;51.678;6.610;2022-07-11T01:25:11;4.57;;;2.20;;
16248;SDS011;8232;51.678;6.610;2022-07-11T01:27:54;4.65;;;2.20;;
16248;SDS011;8232;51.678;6.610;2022-07-11T01:30:22;4.13;;;1.80;;
16248;SDS011;8232;51.678;6.610;2022-07-11T01:32:50;7.22;;;2.80;;
16248;SDS011;8232;51.678;6.610;2022-07-11T01:35:16;4.63;;;2.15;;
16248;SDS011;8232;51.678;6.610;2022-07-11T01:37:43;3.88;;;2.40;;
16248;SDS011;8232;51.678;6.610;2022-07-11T01:40:12;3.85;;;2.20;;
16248;SDS011;8232;51.678;6.610;2022-07-11T01:42:39;5.93;;;2.75;;
16248;SDS011;8232;51.678;6.610;2022-07-11T01:45:06;5.47;;;2.40;;
16248;SDS011;8232;51.678;6.610;2022-07-11T01:47:34;5.28;;;2.70;;
16248;SDS011;8232;51.678;6.610;2022-07-11T01:50:00;6.15;;;2.67;;
16248;SDS011;8232;51.678;6.610;2022-07-11T01:52:28;4.95;;;2.30;;
16248;SDS011;8232;51.678;6.610;2022-07-11T01:54:54;3.33;;;2.08;;
16248;SDS011;8232;51.678;6.610;2022-07-11T01:57:23;7.93;;;2.40;;
16248;SDS011;8232;51.678;6.610;2022-07-11T01:59:49;4.70;;;2.17;;
16248;SDS011;8232;51.678;6.610;2022-07-11T02:02:17;5.45;;;2.28;;
16248;SDS011;8232;51.678;6.610;2022-07-11T02:04:44;6.53;;;2.38;;
16248;SDS011;8232;51.678;6.610;2022-07-11T02:07:11;14.48;;;2.65;;
16248;SDS011;8232;51.678;6.610;2022-07-11T02:09:40;7.50;;;2.65;;
16248;SDS011;8232;51.678;6.610;2022-07-11T02:12:07;3.47;;;2.05;;
16248;SDS011;8232;51.678;6.610;2022-07-11T02:14:35;8.45;;;2.50;;
16248;SDS011;8232;51.678;6.610;2022-07-11T02:17:02;7.25;;;1.77;;
16248;SDS011;8232;51.678;6.610;2022-07-11T02:19:29;3.40;;;1.58;;
16248;SDS011;8232;51.678;6.610;2022-07-11T02:21:56;4.38;;;1.40;;
16248;SDS011;8232;51.678;6.610;2022-07-11T02:24:30;3.45;;;1.30;;
16248;SDS011;8232;51.678;6.610;2022-07-11T02:26:58;1.65;;;1.35;;
16248;SDS011;8232;51.678;6.610;2022-07-11T02:29:25;2.28;;;1.25;;
16248;SDS011;8232;51.678;6.610;2022-07-11T02:31:53;3.25;;;1.25;;
16248;SDS011;8232;51.678;6.610;2022-07-11T02:34:20;2.33;;;1.40;;
16248;SDS011;8232;51.678;6.610;2022-07-11T02:36:47;2.55;;;1.30;;
16248;SDS011;8232;51.678;6.610;2022-07-11T02:39:13;2.00;;;1.10;;
16248;SDS011;8232;51.678;6.610;2022-07-11T02:41:40;3.15;;;1.20;;
16248;SDS011;8232;51.678;6.610;2022-07-11T02:44:07;3.13;;;0.90;;
16248;SDS011;8232;51.678;6.610;2022-07-11T02:46:34;1.90;;;1.05;;
16248;SDS011;8232;51.678;6.610;2022-07-11T02:49:02;2.38;;;1.00;;
16248;SDS011;8232;51.678;6.610;2022-07-11T02:51:29;3.75;;;1.10;;
16248;SDS011;8232;51.678;6.610;2022-07-11T02:53:56;2.15;;;1.10;;
16248;SDS011;8232;51.678;6.610;2022-07-11T02:56:22;3.25;;;1.00;;
16248;SDS011;8232;51.678;6.610;2022-07-11T02:58:49;2.22;;;1.30;;
16248;SDS011;8232;51.678;6.610;2022-07-11T03:01:16;1.77;;;1.00;;
16248;SDS011;8232;51.678;6.610;2022-07-11T03:03:44;2.42;;;0.90;;
16248;SDS011;8232;51.678;6.610;2022-07-11T03:06:13;2.05;;;1.13;;
16248;SDS011;8232;51.678;6.610;2022-07-11T03:08:39;1.00;;;0.90;;
16248;SDS011;8232;51.678;6.610;2022-07-11T03:11:06;1.35;;;0.93;;
16248;SDS011;8232;51.678;6.610;2022-07-11T03:13:33;2.47;;;0.98;;
16248;SDS011;8232;51.678;6.610;2022-07-11T03:16:01;3.15;;;1.30;;
16248;SDS011;8232;51.678;6.610;2022-07-11T03:18:28;1.48;;;1.00;;
16248;SDS011;8232;51.678;6.610;2022-07-11T03:20:54;3.22;;;1.00;;
16248;SDS011;8232;51.678;6.610;2022-07-11T03:23:23;2.65;;;1.17;;
16248;SDS011;8232;51.678;6.610;2022-07-11T03:25:49;1.50;;;1.00;;
16248;SDS011;8232;51.678;6.610;2022-07-11T03:28:16;3.15;;;1.20;;
16248;SDS011;8232;51.678;6.610;2022-07-11T03:30:43;2.83;;;1.25;;
16248;SDS011;8232;51.678;6.610;2022-07-11T03:33:10;3.35;;;1.10;;
16248;SDS011;8232;51.678;6.610;2022-07-11T03:35:37;1.05;;;0.90;;
16248;SDS011;8232;51.678;6.610;2022-07-11T03:38:06;2.90;;;2.15;;
16248;SDS011;8232;51.678;6.610;2022-07-11T03:40:34;0.90;;;0.90;;
16248;SDS011;8232;51.678;6.610;2022-07-11T03:43:02;2.00;;;0.90;;
16248;SDS011;8232;51.678;6.610;2022-07-11T03:45:29;1.77;;;0.80;;
16248;SDS011;8232;51.678;6.610;2022-07-11T03:47:56;2.55;;;1.10;;
16248;SDS011;8232;51.678;6.610;2022-07-11T03:50:22;2.80;;;0.93;;
16248;SDS011;8232;51.678;6.610;2022-07-11T03:52:49;2.10;;;1.30;;
16248;SDS011;8232;51.678;6.610;2022-07-11T03:55:17;3.10;;;1.08;;
16248;SDS011;8232;51.678;6.610;2022-07-11T03:57:47;2.85;;;1.40;;
16248;SDS011;8232;51.678;6.610;2022-07-11T04:00:14;2.42;;;1.08;;
16248;SDS011;8232;51.678;6.610;2022-07-11T04:02:41;3.13;;;1.38;;
16248;SDS011;8232;51.678;6.610;2022-07-11T04:05:08;1.67;;;1.20;;
16248;SDS011;8232;51.678;6.610;2022-07-11T04:07:35;2.25;;;1.10;;
16248;SDS011;8232;51.678;6.610;2022-07-11T04:10:02;2.72;;;1.35;;
16248;SDS011;8232;51.678;6.610;2022-07-11T04:12:29;2.92;;;1.40;;
16248;SDS011;8232;51.678;6.610;2022-07-11T04:14:57;1.90;;;1.20;;
16248;SDS011;8232;51.678;6.610;2022-07-11T04:17:24;6.22;;;1.55;;
16248;SDS011;8232;51.678;6.610;2022-07-11T04:19:51;5.70;;;1.45;;
16248;SDS011;8232;51.678;6.610;2022-07-11T04:22:19;4.78;;;1.60;;
16248;SDS011;8232;51.678;6.610;2022-07-11T04:24:46;3.17;;;1.75;;
16248;SDS011;8232;51.678;6.610;2022-07-11T04:27:13;6.10;;;1.73;;
16248;SDS011;8232;51.678;6.610;2022-07-11T04:29:39;10.07;;;1.83;;
16248;SDS011;8232;51.678;6.610;2022-07-11T04:32:08;6.03;;;1.80;;
16248;SDS011;8232;51.678;6.610;2022-07-11T04:34:35;2.63;;;1.13;;
16248;SDS011;8232;51.678;6.610;2022-07-11T04:37:02;3.90;;;1.50;;
16248;SDS011;8232;51.678;6.610;2022-07-11T04:39:30;3.47;;;1.50;;
16248;SDS011;8232;51.678;6.610;2022-07-11T04:41:57;4.25;;;1.45;;
16248;SDS011;8232;51.678;6.610;2022-07-11T04:44:25;5.90;;;1.77;;
16248;SDS011;8232;51.678;6.610;2022-07-11T04:46:51;5.15;;;1.50;;
16248;SDS011;8232;51.678;6.610;2022-07-11T04:49:20;5.22;;;1.40;;
16248;SDS011;8232;51.678;6.610;2022-07-11T04:51:46;3.85;;;1.48;;
16248;SDS011;8232;51.678;6.610;2022-07-11T04:54:13;4.55;;;1.70;;
16248;SDS011;8232;51.678;6.610;2022-07-11T04:56:40;2.65;;;1.25;;
16248;SDS011;8232;51.678;6.610;2022-07-11T04:59:07;3.15;;;1.70;;
16248;SDS011;8232;51.678;6.610;2022-07-11T05:01:34;3.35;;;1.50;;
16248;SDS011;8232;51.678;6.610;2022-07-11T05:04:01;6.13;;;1.50;;
16248;SDS011;8232;51.678;6.610;2022-07-11T05:06:29;5.00;;;1.73;;
16248;SDS011;8232;51.678;6.610;2022-07-11T05:08:57;2.30;;;1.30;;
16248;SDS011;8232;51.678;6.610;2022-07-11T05:11:24;4.80;;;1.48;;
16248;SDS011;8232;51.678;6.610;2022-07-11T05:13:50;6.20;;;1.60;;
16248;SDS011;8232;51.678;6.610;2022-07-11T05:16:17;4.18;;;2.05;;
16248;SDS011;8232;51.678;6.610;2022-07-11T05:18:44;3.90;;;1.50;;
16248;SDS011;8232;51.678;6.610;2022-07-11T05:21:11;4.05;;;1.70;;
16248;SDS011;8232;51.678;6.610;2022-07-11T05:23:39;3.53;;;1.45;;
16248;SDS011;8232;51.678;6.610;2022-07-11T05:26:06;4.72;;;1.30;;
16248;SDS011;8232;51.678;6.610;2022-07-11T05:28:33;7.13;;;1.83;;
16248;SDS011;8232;51.678;6.610;2022-07-11T05:30:59;8.38;;;1.60;;
16248;SDS011;8232;51.678;6.610;2022-07-11T05:33:26;4.20;;;1.60;;
16248;SDS011;8232;51.678;6.610;2022-07-11T05:35:54;3.25;;;1.65;;
16248;SDS011;8232;51.678;6.610;2022-07-11T05:38:20;5.45;;;2.00;;
16248;SDS011;8232;51.678;6.610;2022-07-11T05:40:49;4.70;;;1.77;;
16248;SDS011;8232;51.678;6.610;2022-07-11T05:43:15;4.93;;;1.83;;
16248;SDS011;8232;51.678;6.610;2022-07-11T05:45:42;4.95;;;1.67;;
16248;SDS011;8232;51.678;6.610;2022-07-11T05:48:09;2.95;;;1.23;;
16248;SDS011;8232;51.678;6.610;2022-07-11T05:50:36;5.05;;;1.35;;
16248;SDS011;8232;51.678;6.610;2022-07-11T05:53:03;2.42;;;1.30;;
16248;SDS011;8232;51.678;6.610;2022-07-11T05:55:30;2.22;;;1.48;;
16248;SDS011;8232;51.678;6.610;2022-07-11T05:57:58;3.92;;;1.50;;
16248;SDS011;8232;51.678;6.610;2022-07-11T06:00:25;2.65;;;1.48;;
16248;SDS011;8232;51.678;6.610;2022-07-11T06:02:52;2.67;;;1.40;;
16248;SDS011;8232;51.678;6.610;2022-07-11T06:05:19;4.22;;;1.65;;
16248;SDS011;8232;51.678;6.610;2022-07-11T06:07:46;4.03;;;1.40;;
16248;SDS011;8232;51.678;6.610;2022-07-11T06:10:30;3.42;;;1.10;;
16248;SDS011;8232;51.678;6.610;2022-07-11T06:12:59;2.83;;;1.40;;
16248;SDS011;8232;51.678;6.610;2022-07-11T06:15:26;2.22;;;1.20;;
16248;SDS011;8232;51.678;6.610;2022-07-11T06:17:53;3.95;;;1.20;;
16248;SDS011;8232;51.678;6.610;2022-07-11T06:20:20;1.95;;;1.10;;
16248;SDS011;8232;51.678;6.610;2022-07-11T06:22:47;2.03;;;1.05;;
16248;SDS011;8232;51.678;6.610;2022-07-11T06:25:14;2.53;;;0.95;;
16248;SDS011;8232;51.678;6.610;2022-07-11T06:27:41;2.42;;;1.10;;
16248;SDS011;8232;51.678;6.610;2022-07-11T06:30:09;3.33;;;0.98;;
16248;SDS011;8232;51.678;6.610;2022-07-11T06:32:37;2.33;;;1.20;;
16248;SDS011;8232;51.678;6.610;2022-07-11T06:35:05;3.17;;;0.90;;
16248;SDS011;8232;51.678;6.610;2022-07-11T06:37:33;3.53;;;1.00;;
16248;SDS011;8232;51.678;6.610;2022-07-11T06:40:00;1.15;;;0.80;;
16248;SDS011;8232;51.678;6.610;2022-07-11T06:42:27;4.57;;;0.80;;
16248;SDS011;8232;51.678;6.610;2022-07-11T06:44:54;17.90;;;1.63;;
16248;SDS011;8232;51.678;6.610;2022-07-11T06:47:22;1.20;;;0.82;;
16248;SDS011;8232;51.678;6.610;2022-07-11T06:49:50;2.60;;;0.85;;
16248;SDS011;8232;51.678;6.610;2022-07-11T06:52:17;1.48;;;0.70;;
16248;SDS011;8232;51.678;6.610;2022-07-11T06:54:43;1.52;;;0.82;;
16248;SDS011;8232;51.678;6.610;2022-07-11T06:57:10;1.10;;;0.75;;
16248;SDS011;8232;51.678;6.610;2022-07-11T06:59:37;3.95;;;1.27;;
16248;SDS011;8232;51.678;6.610;2022-07-11T07:02:04;0.95;;;0.60;;
16248;SDS011;8232;51.678;6.610;2022-07-11T07:04:33;4.07;;;0.80;;
16248;SDS011;8232;51.678;6.610;2022-07-11T07:07:00;6.32;;;0.88;;
16248;SDS011;8232;51.678;6.610;2022-07-11T07:09:27;7.07;;;0.80;;
16248;SDS011;8232;51.678;6.610;2022-07-11T07:11:54;1.23;;;0.77;;
16248;SDS011;8232;51.678;6.610;2022-07-11T07:14:20;7.15;;;1.17;;
16248;SDS011;8232;51.678;6.610;2022-07-11T07:16:48;11.60;;;1.13;;
16248;SDS011;8232;51.678;6.610;2022-07-11T07:19:15;0.90;;;0.57;;
16248;SDS011;8232;51.678;6.610;2022-07-11T07:21:43;3.25;;;0.93;;
16248;SDS011;8232;51.678;6.610;2022-07-11T07:24:10;1.15;;;0.47;;
16248;SDS011;8232;51.678;6.610;2022-07-11T07:26:37;1.30;;;0.60;;
16248;SDS011;8232;51.678;6.610;2022-07-11T07:29:04;1.75;;;0.70;;
16248;SDS011;8232;51.678;6.610;2022-07-11T07:31:30;1.80;;;0.57;;
16248;SDS011;8232;51.678;6.610;2022-07-11T07:33:57;0.63;;;0.60;;
16248;SDS011;8232;51.678;6.610;2022-07-11T07:36:24;2.08;;;0.80;;
16248;SDS011;8232;51.678;6.610;2022-07-11T07:38:52;3.00;;;0.60;;
16248;SDS011;8232;51.678;6.610;2022-07-11T07:41:19;2.33;;;0.50;;
16248;SDS011;8232;51.678;6.610;2022-07-11T07:43:46;0.65;;;0.40;;
16248;SDS011;8232;51.678;6.610;2022-07-11T07:46:13;4.75;;;0.63;;
16248;SDS011;8232;51.678;6.610;2022-07-11T07:48:41;0.68;;;0.50;;
16248;SDS011;8232;51.678;6.610;2022-07-11T07:51:08;1.48;;;0.40;;
16248;SDS011;8232;51.678;6.610;2022-07-11T07:53:35;1.77;;;0.50;;
16248;SDS011;8232;51.678;6.610;2022-07-11T07:56:04;1.25;;;0.70;;
16248;SDS011;8232;51.678;6.610;2022-07-11T07:58:31;3.75;;;0.70;;
16248;SDS011;8232;51.678;6.610;2022-07-11T08:00:58;0.65;;;0.57;;
16248;SDS011;8232;51.678;6.610;2022-07-11T08:03:43;5.75;;;1.08;;
16248;SDS011;8232;51.678;6.610;2022-07-11T08:06:09;0.77;;;0.50;;
16248;SDS011;8232;51.678;6.610;2022-07-11T08:08:36;3.35;;;0.63;;
16248;SDS011;8232;51.678;6.610;2022-07-11T08:11:04;1.52;;;0.68;;
16248;SDS011;8232;51.678;6.610;2022-07-11T08:13:31;1.02;;;0.60;;
16248;SDS011;8232;51.678;6.610;2022-07-11T08:15:58;1.10;;;0.60;;
16248;SDS011;8232;51.678;6.610;2022-07-11T08:18:25;0.70;;;0.52;;
16248;SDS011;8232;51.678;6.610;2022-07-11T08:20:53;0.60;;;0.60;;
16248;SDS011;8232;51.678;6.610;2022-07-11T08:23:21;0.70;;;0.60;;
16248;SDS011;8232;51.678;6.610;2022-07-11T08:25:48;0.93;;;0.80;;
16248;SDS011;8232;51.678;6.610;2022-07-11T08:28:16;14.07;;;1.55;;
16248;SDS011;8232;51.678;6.610;2022-07-11T08:30:43;2.30;;;0.80;;
16248;SDS011;8232;51.678;6.610;2022-07-11T08:33:10;5.05;;;0.90;;
16248;SDS011;8232;51.678;6.610;2022-07-11T08:35:36;0.63;;;0.57;;
16248;SDS011;8232;51.678;6.610;2022-07-11T08:38:03;1.00;;;0.70;;
16248;SDS011;8232;51.678;6.610;2022-07-11T08:40:30;0.75;;;0.65;;
16248;SDS011;8232;51.678;6.610;2022-07-11T08:42:57;0.98;;;0.55;;
16248;SDS011;8232;51.678;6.610;2022-07-11T08:45:28;1.55;;;0.68;;
16248;SDS011;8232;51.678;6.610;2022-07-11T08:47:56;2.28;;;0.73;;
16248;SDS011;8232;51.678;6.610;2022-07-11T08:50:23;0.75;;;0.40;;
16248;SDS011;8232;51.678;6.610;2022-07-11T08:52:53;0.63;;;0.50;;
16248;SDS011;8232;51.678;6.610;2022-07-11T08:55:20;0.82;;;0.60;;
16248;SDS011;8232;51.678;6.610;2022-07-11T08:57:47;0.88;;;0.63;;
16248;SDS011;8232;51.678;6.610;2022-07-11T09:00:14;14.93;;;2.00;;
16248;SDS011;8232;51.678;6.610;2022-07-11T09:02:43;6.43;;;1.65;;
16248;SDS011;8232;51.678;6.610;2022-07-11T09:05:11;7.70;;;2.35;;
16248;SDS011;8232;51.678;6.610;2022-07-11T09:07:42;1.55;;;0.80;;
16248;SDS011;8232;51.678;6.610;2022-07-11T09:10:10;3.15;;;0.80;;
16248;SDS011;8232;51.678;6.610;2022-07-11T09:12:37;1.33;;;0.82;;
16248;SDS011;8232;51.678;6.610;2022-07-11T09:15:31;1.15;;;0.68;;
16248;SDS011;8232;51.678;6.610;2022-07-11T09:18:01;1.15;;;0.68;;
16248;SDS011;8232;51.678;6.610;2022-07-11T09:20:33;2.05;;;0.70;;
16248;SDS011;8232;51.678;6.610;2022-07-11T09:23:36;3.50;;;0.77;;
16248;SDS011;8232;51.678;6.610;2022-07-11T09:26:20;2.13;;;0.70;;
16248;SDS011;8232;51.678;6.610;2022-07-11T09:28:57;1.08;;;0.63;;
16248;SDS011;8232;51.678;6.610;2022-07-11T09:31:29;1.45;;;0.90;;
16248;SDS011;8232;51.678;6.610;2022-07-11T09:33:59;1.30;;;0.70;;
16248;SDS011;8232;51.678;6.610;2022-07-11T09:36:42;2.88;;;1.33;;
16248;SDS011;8232;51.678;6.610;2022-07-11T09:39:11;1.23;;;0.80;;
16248;SDS011;8232;51.678;6.610;2022-07-11T09:41:39;1.63;;;0.80;;
16248;SDS011;8232;51.678;6.610;2022-07-11T09:44:11;2.17;;;0.88;;
16248;SDS011;8232;51.678;6.610;2022-07-11T09:46:39;1.85;;;0.55;;
16248;SDS011;8232;51.678;6.610;2022-07-11T09:49:08;1.23;;;0.80;;
16248;SDS011;8232;51.678;6.610;2022-07-11T09:51:35;0.73;;;0.60;;
16248;SDS011;8232;51.678;6.610;2022-07-11T09:54:04;0.52;;;0.50;;
16248;SDS011;8232;51.678;6.610;2022-07-11T09:56:33;0.70;;;0.70;;
16248;SDS011;8232;51.678;6.610;2022-07-11T09:59:05;0.77;;;0.55;;
16248;SDS011;8232;51.678;6.610;2022-07-11T10:01:34;2.92;;;0.68;;
16248;SDS011;8232;51.678;6.610;2022-07-11T10:04:01;2.05;;;1.10;;
16248;SDS011;8232;51.678;6.610;2022-07-11T10:06:31;1.95;;;0.80;;
16248;SDS011;8232;51.678;6.610;2022-07-11T10:08:58;1.70;;;0.70;;
16248;SDS011;8232;51.678;6.610;2022-07-11T10:11:27;2.17;;;0.80;;
16248;SDS011;8232;51.678;6.610;2022-07-11T10:13:54;1.45;;;0.90;;
16248;SDS011;8232;51.678;6.610;2022-07-11T10:16:25;1.60;;;1.00;;
16248;SDS011;8232;51.678;6.610;2022-07-11T10:19:12;1.00;;;0.73;;
16248;SDS011;8232;51.678;6.610;2022-07-11T10:21:55;1.10;;;0.82;;
16248;SDS011;8232;51.678;6.610;2022-07-11T10:24:32;2.00;;;0.93;;
16248;SDS011;8232;51.678;6.610;2022-07-11T10:27:06;0.95;;;0.80;;
16248;SDS011;8232;51.678;6.610;2022-07-11T10:29:42;1.30;;;0.90;;
16248;SDS011;8232;51.678;6.610;2022-07-11T10:32:14;1.15;;;0.80;;
16248;SDS011;8232;51.678;6.610;2022-07-11T10:34:41;1.65;;;0.88;;
16248;SDS011;8232;51.678;6.610;2022-07-11T10:37:11;1.33;;;0.93;;
16248;SDS011;8232;51.678;6.610;2022-07-11T10:39:38;2.40;;;1.05;;
16248;SDS011;8232;51.678;6.610;2022-07-11T10:42:18;1.55;;;0.70;;
16248;SDS011;8232;51.678;6.610;2022-07-11T10:44:47;2.45;;;1.10;;
16248;SDS011;8232;51.678;6.610;2022-07-11T10:47:33;1.00;;;0.90;;
16248;SDS011;8232;51.678;6.610;2022-07-11T10:50:02;1.45;;;0.82;;
16248;SDS011;8232;51.678;6.610;2022-07-11T10:52:35;25.58;;;3.95;;
16248;SDS011;8232;51.678;6.610;2022-07-11T10:55:08;1.40;;;0.80;;
16248;SDS011;8232;51.678;6.610;2022-07-11T10:57:48;1.08;;;0.98;;
16248;SDS011;8232;51.678;6.610;2022-07-11T11:00:22;0.80;;;0.57;;
16248;SDS011;8232;51.678;6.610;2022-07-11T11:02:59;0.88;;;0.70;;
16248;SDS011;8232;51.678;6.610;2022-07-11T11:05:41;2.28;;;0.93;;
16248;SDS011;8232;51.678;6.610;2022-07-11T11:20:06;0.90;;;0.60;;
16248;SDS011;8232;51.678;6.610;2022-07-11T11:23:07;1.27;;;0.65;;
16248;SDS011;8232;51.678;6.610;2022-07-11T11:25:35;0.77;;;0.70;;
16248;SDS011;8232;51.678;6.610;2022-07-11T11:28:03;0.93;;;0.60;;
16248;SDS011;8232;51.678;6.610;2022-07-11T11:30:30;1.23;;;0.70;;
16248;SDS011;8232;51.678;6.610;2022-07-11T11:32:58;0.82;;;0.80;;
16248;SDS011;8232;51.678;6.610;2022-07-11T11:35:24;0.90;;;0.90;;
16248;SDS011;8232;51.678;6.610;2022-07-11T11:37:51;1.50;;;1.00;;
16248;SDS011;8232;51.678;6.610;2022-07-11T11:40:20;1.85;;;0.90;;
16248;SDS011;8232;51.678;6.610;2022-07-11T11:42:48;0.93;;;0.68;;
16248;SDS011;8232;51.678;6.610;2022-07-11T11:45:15;1.08;;;1.00;;
16248;SDS011;8232;51.678;6.610;2022-07-11T11:47:46;2.70;;;0.90;;
16248;SDS011;8232;51.678;6.610;2022-07-11T11:50:14;1.75;;;1.65;;
16248;SDS011;8232;51.678;6.610;2022-07-11T11:52:40;1.70;;;0.90;;
16248;SDS011;8232;51.678;6.610;2022-07-11T11:55:07;2.13;;;1.02;;
16248;SDS011;8232;51.678;6.610;2022-07-11T11:57:36;1.55;;;0.80;;
16248;SDS011;8232;51.678;6.610;2022-07-11T12:00:13;0.80;;;0.63;;
16248;SDS011;8232;51.678;6.610;2022-07-11T12:02:47;2.35;;;0.80;;
16248;SDS011;8232;51.678;6.610;2022-07-11T12:05:14;1.52;;;0.82;;
16248;SDS011;8232;51.678;6.610;2022-07-11T12:07:42;1.10;;;0.60;;
16248;SDS011;8232;51.678;6.610;2022-07-11T12:10:10;1.58;;;1.05;;
16248;SDS011;8232;51.678;6.610;2022-07-11T12:12:37;0.90;;;0.80;;
16248;SDS011;8232;51.678;6.610;2022-07-11T12:15:28;2.15;;;0.80;;
16248;SDS011;8232;51.678;6.610;2022-07-11T12:17:57;1.05;;;0.95;;
16248;SDS011;8232;51.678;6.610;2022-07-11T12:20:33;1.35;;;0.80;;
16248;SDS011;8232;51.678;6.610;2022-07-11T12:23:04;1.05;;;0.90;;
16248;SDS011;8232;51.678;6.610;2022-07-11T12:25:33;1.65;;;0.90;;
16248;SDS011;8232;51.678;6.610;2022-07-11T12:28:00;0.75;;;0.50;;
16248;SDS011;8232;51.678;6.610;2022-07-11T12:30:28;1.83;;;1.00;;
16248;SDS011;8232;51.678;6.610;2022-07-11T12:33:05;1.25;;;0.70;;
16248;SDS011;8232;51.678;6.610;2022-07-11T12:35:33;0.75;;;0.73;;
16248;SDS011;8232;51.678;6.610;2022-07-11T12:38:01;1.33;;;0.95;;
16248;SDS011;8232;51.678;6.610;2022-07-11T12:40:28;1.30;;;0.80;;
16248;SDS011;8232;51.678;6.610;2022-07-11T12:42:55;1.10;;;0.75;;
16248;SDS011;8232;51.678;6.610;2022-07-11T12:45:22;0.80;;;0.75;;
16248;SDS011;8232;51.678;6.610;2022-07-11T12:47:49;1.15;;;0.70;;
16248;SDS011;8232;51.678;6.610;2022-07-11T12:50:18;1.48;;;0.90;;
16248;SDS011;8232;51.678;6.610;2022-07-11T12:52:47;1.95;;;0.90;;
16248;SDS011;8232;51.678;6.610;2022-07-11T12:55:23;0.93;;;0.82;;
16248;SDS011;8232;51.678;6.610;2022-07-11T12:57:59;2.95;;;0.98;;
16248;SDS011;8232;51.678;6.610;2022-07-11T13:00:30;1.15;;;0.68;;
16248;SDS011;8232;51.678;6.610;2022-07-11T13:02:59;1.17;;;0.80;;
16248;SDS011;8232;51.678;6.610;2022-07-11T13:05:26;0.82;;;0.80;;
16248;SDS011;8232;51.678;6.610;2022-07-11T13:07:53;1.75;;;1.00;;
16248;SDS011;8232;51.678;6.610;2022-07-11T13:10:37;1.60;;;1.00;;
16248;SDS011;8232;51.678;6.610;2022-07-11T13:13:16;1.15;;;0.70;;
16248;SDS011;8232;51.678;6.610;2022-07-11T13:15:44;3.60;;;1.13;;
16248;SDS011;8232;51.678;6.610;2022-07-11T13:18:14;2.45;;;1.27;;
16248;SDS011;8232;51.678;6.610;2022-07-11T13:20:41;1.35;;;0.90;;
16248;SDS011;8232;51.678;6.610;2022-07-11T13:23:07;1.55;;;0.85;;
16248;SDS011;8232;51.678;6.610;2022-07-11T13:25:34;2.08;;;1.10;;
16248;SDS011;8232;51.678;6.610;2022-07-11T13:28:01;1.20;;;1.10;;
16248;SDS011;8232;51.678;6.610;2022-07-11T13:30:28;0.80;;;0.70;;
16248;SDS011;8232;51.678;6.610;2022-07-11T13:32:56;1.63;;;0.90;;
16248;SDS011;8232;51.678;6.610;2022-07-11T13:35:25;1.60;;;1.00;;
16248;SDS011;8232;51.678;6.610;2022-07-11T13:37:52;0.80;;;0.80;;
16248;SDS011;8232;51.678;6.610;2022-07-11T13:40:19;1.50;;;0.93;;
16248;SDS011;8232;51.678;6.610;2022-07-11T13:42:47;3.22;;;0.90;;
16248;SDS011;8232;51.678;6.610;2022-07-11T13:45:15;0.85;;;0.80;;
16248;SDS011;8232;51.678;6.610;2022-07-11T13:47:43;0.70;;;0.70;;
16248;SDS011;8232;51.678;6.610;2022-07-11T13:50:12;2.05;;;0.93;;
16248;SDS011;8232;51.678;6.610;2022-07-11T13:52:40;0.70;;;0.70;;
16248;SDS011;8232;51.678;6.610;2022-07-11T13:55:11;0.80;;;0.80;;
16248;SDS011;8232;51.678;6.610;2022-07-11T13:57:38;1.00;;;0.68;;
16248;SDS011;8232;51.678;6.610;2022-07-11T14:00:06;1.75;;;0.82;;
16248;SDS011;8232;51.678;6.610;2022-07-11T14:02:33;1.35;;;0.77;;
16248;SDS011;8232;51.678;6.610;2022-07-11T14:05:00;0.60;;;0.60;;
16248;SDS011;8232;51.678;6.610;2022-07-11T14:07:27;1.73;;;1.00;;
16248;SDS011;8232;51.678;6.610;2022-07-11T14:09:55;3.00;;;1.00;;
16248;SDS011;8232;51.678;6.610;2022-07-11T14:12:22;4.30;;;1.15;;
16248;SDS011;8232;51.678;6.610;2022-07-11T14:14:49;4.05;;;1.30;;
16248;SDS011;8232;51.678;6.610;2022-07-11T14:17:16;2.20;;;1.20;;
16248;SDS011;8232;51.678;6.610;2022-07-11T14:19:43;3.47;;;0.98;;
16248;SDS011;8232;51.678;6.610;2022-07-11T14:22:10;1.20;;;1.10;;
16248;SDS011;8232;51.678;6.610;2022-07-11T14:24:37;1.13;;;0.82;;
16248;SDS011;8232;51.678;6.610;2022-07-11T14:27:05;2.50;;;1.10;;
16248;SDS011;8232;51.678;6.610;2022-07-11T14:29:32;1.20;;;1.10;;
16248;SDS011;8232;51.678;6.610;2022-07-11T14:31:59;1.55;;;1.00;;
16248;SDS011;8232;51.678;6.610;2022-07-11T14:34:26;1.60;;;1.02;;
16248;SDS011;8232;51.678;6.610;2022-07-11T14:36:54;1.15;;;1.05;;
16248;SDS011;8232;51.678;6.610;2022-07-11T14:39:21;1.20;;;1.10;;
16248;SDS011;8232;51.678;6.610;2022-07-11T14:41:48;0.80;;;0.80;;
16248;SDS011;8232;51.678;6.610;2022-07-11T14:44:18;1.10;;;0.95;;
16248;SDS011;8232;51.678;6.610;2022-07-11T14:46:45;1.35;;;1.00;;
16248;SDS011;8232;51.678;6.610;2022-07-11T14:49:12;0.95;;;0.90;;
16248;SDS011;8232;51.678;6.610;2022-07-11T14:51:38;1.08;;;0.90;;
16248;SDS011;8232;51.678;6.610;2022-07-11T14:54:05;2.08;;;1.10;;
16248;SDS011;8232;51.678;6.610;2022-07-11T14:56:33;1.20;;;1.10;;
16248;SDS011;8232;51.678;6.610;2022-07-11T14:59:02;0.90;;;0.80;;
16248;SDS011;8232;51.678;6.610;2022-07-11T15:01:30;1.48;;;0.90;;
16248;SDS011;8232;51.678;6.610;2022-07-11T15:03:58;1.17;;;0.85;;
16248;SDS011;8232;51.678;6.610;2022-07-11T15:06:27;1.65;;;1.00;;
16248;SDS011;8232;51.678;6.610;2022-07-11T15:09:08;1.30;;;1.00;;
16248;SDS011;8232;51.678;6.610;2022-07-11T15:11:55;1.23;;;1.00;;
16248;SDS011;8232;51.678;6.610;2022-07-11T15:14:39;2.47;;;0.90;;
16248;SDS011;8232;51.678;6.610;2022-07-11T15:17:07;1.60;;;1.30;;
16248;SDS011;8232;51.678;6.610;2022-07-11T15:19:34;1.00;;;0.90;;
16248;SDS011;8232;51.678;6.610;2022-07-11T15:22:01;1.50;;;1.27;;